DLH1PJ EDDM-LDZA
Flight info
| Callsign | DLH1PJ |
|---|---|
| Flight time | 0h 45m |
| Altitude | 29000 |
| Route | ROTAX3S/26L ROTAX L603 LATLO DCT OBEDI/N0411F330 DCT LULUD |
| Aircraft | A20N/M-SDE2E3FGHIRWXY/LB1 |
Departure
| Time | 2026-05-04 09:05 |
|---|---|
| Airport | Munich Airport (EDDM) |
Arrival
| Time | 2026-05-04 09:51 |
|---|---|
| Airport | Zagreb Franjo Tuđman International Airport (LDZA) |
| Time | Latitude | Longitude | Altitude | Speed | Heading |
|---|---|---|---|---|---|
| 2026-05-04 08:41 | 48.35351 | 11.79303 | 1462 ft | 0 kts | 261° |
| 2026-05-04 08:55 | 48.35352 | 11.79312 | 1467 ft | 2 kts | 261° |
| 2026-05-04 08:57 | 48.35392 | 11.79465 | 1458 ft | 1 kts | 173° |
| 2026-05-04 09:01 | 48.35215 | 11.79566 | 1467 ft | 17 kts | 174° |
| 2026-05-04 09:01 | 48.35088 | 11.79591 | 1459 ft | 20 kts | 173° |
| 2026-05-04 09:01 | 48.34996 | 11.79615 | 1458 ft | 8 kts | 162° |
| 2026-05-04 09:01 | 48.34942 | 11.79669 | 1463 ft | 10 kts | 144° |
| 2026-05-04 09:02 | 48.34870 | 11.79691 | 1459 ft | 12 kts | 173° |
| 2026-05-04 09:02 | 48.34803 | 11.79769 | 1464 ft | 14 kts | 98° |
| 2026-05-04 09:02 | 48.34819 | 11.79920 | 1467 ft | 16 kts | 83° |
| 2026-05-04 09:02 | 48.34830 | 11.80059 | 1464 ft | 5 kts | 82° |
| 2026-05-04 09:03 | 48.34830 | 11.80123 | 1467 ft | 8 kts | 104° |
| 2026-05-04 09:03 | 48.34792 | 11.80197 | 1464 ft | 11 kts | 139° |
| 2026-05-04 09:03 | 48.34718 | 11.80249 | 1467 ft | 13 kts | 172° |
| 2026-05-04 09:03 | 48.34613 | 11.80267 | 1464 ft | 17 kts | 176° |
| 2026-05-04 09:04 | 48.34510 | 11.80274 | 1460 ft | 5 kts | 178° |
| 2026-05-04 09:04 | 48.34474 | 11.80260 | 1463 ft | 6 kts | 218° |
| 2026-05-04 09:04 | 48.34441 | 11.80035 | 1465 ft | 53 kts | 260° |
| 2026-05-04 09:04 | 48.34377 | 11.79131 | 1459 ft | 118 kts | 264° |
| 2026-05-04 09:05 | 48.34243 | 11.77662 | 1473 ft | 164 kts | 261° |
| 2026-05-04 09:05 | 48.34072 | 11.75897 | 1996 ft | 181 kts | 259° |
| 2026-05-04 09:05 | 48.33791 | 11.73922 | 2548 ft | 204 kts | 249° |
| 2026-05-04 09:05 | 48.33099 | 11.71966 | 3275 ft | 222 kts | 226° |
| 2026-05-04 09:06 | 48.31793 | 11.70775 | 3971 ft | 220 kts | 192° |
| 2026-05-04 09:07 | 48.21418 | 11.78295 | 9232 ft | 279 kts | 147° |
| 2026-05-04 09:08 | 48.19789 | 11.79934 | 10250 ft | 283 kts | 148° |
| 2026-05-04 09:08 | 48.18199 | 11.81708 | 11190 ft | 288 kts | 140° |
| 2026-05-04 09:08 | 48.16798 | 11.83901 | 12083 ft | 295 kts | 131° |
| 2026-05-04 09:08 | 48.15462 | 11.86365 | 12588 ft | 316 kts | 132° |
| 2026-05-04 09:09 | 48.14018 | 11.89002 | 12901 ft | 340 kts | 132° |
| 2026-05-04 09:09 | 48.12493 | 11.91776 | 13498 ft | 351 kts | 132° |
| 2026-05-04 09:09 | 48.10910 | 11.94653 | 14182 ft | 362 kts | 132° |
| 2026-05-04 09:09 | 48.09284 | 11.97599 | 14750 ft | 371 kts | 132° |
| 2026-05-04 09:10 | 48.07776 | 12.00637 | 15475 ft | 377 kts | 125° |
| 2026-05-04 09:10 | 48.06480 | 12.04156 | 16241 ft | 384 kts | 117° |
| 2026-05-04 09:10 | 48.05479 | 12.07939 | 16981 ft | 390 kts | 112° |
| 2026-05-04 09:10 | 48.04545 | 12.11693 | 17692 ft | 394 kts | 112° |
| 2026-05-04 09:11 | 48.03581 | 12.15536 | 18398 ft | 399 kts | 112° |
| 2026-05-04 09:11 | 48.02591 | 12.19452 | 19043 ft | 402 kts | 112° |
| 2026-05-04 09:11 | 48.02396 | 12.20219 | 19182 ft | 403 kts | 112° |
| 2026-05-04 09:11 | 48.02123 | 12.21298 | 19357 ft | 404 kts | 112° |
| 2026-05-04 09:12 | 48.01122 | 12.25238 | 20010 ft | 407 kts | 112° |
| 2026-05-04 09:14 | 47.89582 | 12.49800 | 23902 ft | 435 kts | 138° |
| 2026-05-04 09:14 | 47.87338 | 12.52924 | 24380 ft | 438 kts | 139° |
| 2026-05-04 09:14 | 47.85105 | 12.56031 | 24834 ft | 442 kts | 139° |
| 2026-05-04 09:14 | 47.82843 | 12.59175 | 25294 ft | 446 kts | 139° |
| 2026-05-04 09:15 | 47.80583 | 12.62357 | 25736 ft | 450 kts | 137° |
| 2026-05-04 09:15 | 47.78358 | 12.65669 | 26170 ft | 453 kts | 136° |
| 2026-05-04 09:15 | 47.76143 | 12.69025 | 26593 ft | 457 kts | 136° |
| 2026-05-04 09:15 | 47.73907 | 12.72404 | 26979 ft | 461 kts | 136° |
| 2026-05-04 09:17 | 47.55393 | 12.99879 | 29038 ft | 477 kts | 137° |
| 2026-05-04 09:18 | 47.50672 | 13.06824 | 29039 ft | 479 kts | 137° |
| 2026-05-04 09:18 | 47.45945 | 13.13762 | 29032 ft | 479 kts | 136° |
| 2026-05-04 09:19 | 47.41234 | 13.20656 | 29037 ft | 478 kts | 137° |
| 2026-05-04 09:19 | 47.37588 | 13.25975 | 29051 ft | 479 kts | 137° |
| 2026-05-04 09:20 | 47.32855 | 13.32883 | 29040 ft | 479 kts | 135° |
| 2026-05-04 09:20 | 47.28395 | 13.40193 | 29057 ft | 482 kts | 133° |
| 2026-05-04 09:21 | 47.23936 | 13.47568 | 29065 ft | 481 kts | 133° |
| 2026-05-04 09:21 | 47.19487 | 13.54895 | 29064 ft | 480 kts | 133° |
| 2026-05-04 09:22 | 47.15020 | 13.62224 | 29080 ft | 480 kts | 133° |
| 2026-05-04 09:22 | 47.10574 | 13.69499 | 29081 ft | 481 kts | 133° |
| 2026-05-04 09:23 | 47.06095 | 13.76804 | 29091 ft | 482 kts | 133° |
| 2026-05-04 09:23 | 47.01605 | 13.84109 | 29089 ft | 482 kts | 133° |
| 2026-05-04 09:25 | 46.85680 | 14.09853 | 31078 ft | 488 kts | 133° |
| 2026-05-04 09:25 | 46.83394 | 14.13531 | 31103 ft | 491 kts | 133° |
| 2026-05-04 09:26 | 46.78768 | 14.20955 | 31074 ft | 494 kts | 133° |
| 2026-05-04 09:26 | 46.76477 | 14.24624 | 30885 ft | 481 kts | 133° |
| 2026-05-04 09:26 | 46.74258 | 14.28174 | 30639 ft | 468 kts | 133° |
| 2026-05-04 09:27 | 46.72078 | 14.31656 | 30399 ft | 467 kts | 133° |
| 2026-05-04 09:27 | 46.69855 | 14.35200 | 30148 ft | 475 kts | 133° |
| 2026-05-04 09:27 | 46.67671 | 14.38678 | 29874 ft | 471 kts | 133° |
| 2026-05-04 09:27 | 46.65916 | 14.41470 | 29648 ft | 469 kts | 133° |
| 2026-05-04 09:28 | 46.63720 | 14.44961 | 29363 ft | 467 kts | 133° |
| 2026-05-04 09:28 | 46.61530 | 14.48439 | 29086 ft | 465 kts | 133° |
| 2026-05-04 09:28 | 46.59316 | 14.51949 | 28809 ft | 464 kts | 133° |
| 2026-05-04 09:28 | 46.57139 | 14.55397 | 28540 ft | 463 kts | 133° |
| 2026-05-04 09:29 | 46.54989 | 14.58796 | 28273 ft | 461 kts | 133° |
| 2026-05-04 09:29 | 46.52829 | 14.62207 | 28002 ft | 456 kts | 133° |
| 2026-05-04 09:29 | 46.50690 | 14.65580 | 27735 ft | 455 kts | 133° |
| 2026-05-04 09:29 | 46.48539 | 14.68969 | 27198 ft | 452 kts | 133° |
| 2026-05-04 09:30 | 46.46418 | 14.72306 | 26601 ft | 448 kts | 133° |
| 2026-05-04 09:30 | 46.44311 | 14.75617 | 26011 ft | 443 kts | 133° |
| 2026-05-04 09:30 | 46.42311 | 14.78756 | 25449 ft | 438 kts | 133° |
| 2026-05-04 09:30 | 46.40205 | 14.82065 | 24848 ft | 435 kts | 134° |
| 2026-05-04 09:31 | 46.38164 | 14.85261 | 24426 ft | 429 kts | 134° |
| 2026-05-04 09:31 | 46.36163 | 14.88392 | 23769 ft | 428 kts | 134° |
| 2026-05-04 09:31 | 46.34150 | 14.91533 | 23156 ft | 423 kts | 134° |
| 2026-05-04 09:31 | 46.32162 | 14.94639 | 22485 ft | 419 kts | 134° |
| 2026-05-04 09:32 | 46.30193 | 14.97709 | 21882 ft | 414 kts | 134° |
| 2026-05-04 09:32 | 46.28247 | 15.00740 | 21319 ft | 409 kts | 135° |
| 2026-05-04 09:34 | 46.15186 | 15.20979 | 17321 ft | 377 kts | 134° |
| 2026-05-04 09:34 | 46.13398 | 15.23737 | 16789 ft | 377 kts | 134° |
| 2026-05-04 09:34 | 46.11608 | 15.26495 | 16247 ft | 376 kts | 134° |
| 2026-05-04 09:34 | 46.09832 | 15.29228 | 15706 ft | 371 kts | 134° |
| 2026-05-04 09:35 | 46.08099 | 15.31896 | 15176 ft | 367 kts | 134° |
| 2026-05-04 09:35 | 46.06381 | 15.34535 | 14660 ft | 367 kts | 134° |
| 2026-05-04 09:35 | 46.04614 | 15.37250 | 14115 ft | 364 kts | 134° |
| 2026-05-04 09:35 | 46.02888 | 15.39897 | 13562 ft | 360 kts | 134° |
| 2026-05-04 09:37 | 45.91217 | 15.57737 | 10202 ft | 342 kts | 135° |
| 2026-05-04 09:37 | 45.90676 | 15.58561 | 10162 ft | 342 kts | 135° |
| 2026-05-04 09:38 | 45.89045 | 15.61039 | 10105 ft | 346 kts | 134° |
| 2026-05-04 09:38 | 45.87416 | 15.63519 | 10085 ft | 345 kts | 135° |
| 2026-05-04 09:38 | 45.85788 | 15.65994 | 10007 ft | 335 kts | 135° |
| 2026-05-04 09:38 | 45.84206 | 15.68381 | 9829 ft | 317 kts | 136° |
| 2026-05-04 09:39 | 45.82687 | 15.70418 | 9656 ft | 298 kts | 138° |
| 2026-05-04 09:39 | 45.81204 | 15.72431 | 9397 ft | 282 kts | 138° |
| 2026-05-04 09:39 | 45.79791 | 15.74354 | 8853 ft | 279 kts | 138° |
| 2026-05-04 09:39 | 45.78388 | 15.76260 | 8264 ft | 277 kts | 139° |
| 2026-05-04 09:40 | 45.76896 | 15.77979 | 7752 ft | 274 kts | 155° |
| 2026-05-04 09:40 | 45.75076 | 15.78596 | 7493 ft | 267 kts | 184° |
| 2026-05-04 09:40 | 45.73303 | 15.77928 | 7274 ft | 266 kts | 211° |
| 2026-05-04 09:40 | 45.71904 | 15.76230 | 7059 ft | 265 kts | 228° |
| 2026-05-04 09:41 | 45.70712 | 15.74235 | 6833 ft | 261 kts | 231° |
| 2026-05-04 09:42 | 45.61354 | 15.66465 | 4665 ft | 270 kts | 146° |
| 2026-05-04 09:43 | 45.59932 | 15.68224 | 4292 ft | 271 kts | 137° |
| 2026-05-04 09:43 | 45.58623 | 15.70126 | 4067 ft | 266 kts | 136° |
| 2026-05-04 09:43 | 45.57354 | 15.71962 | 4013 ft | 258 kts | 136° |
| 2026-05-04 09:43 | 45.56139 | 15.73872 | 4012 ft | 260 kts | 123° |
| 2026-05-04 09:44 | 45.55576 | 15.76322 | 4015 ft | 262 kts | 92° |
| 2026-05-04 09:44 | 45.56002 | 15.78775 | 4013 ft | 253 kts | 58° |
| 2026-05-04 09:44 | 45.57031 | 15.80710 | 4007 ft | 240 kts | 47° |
| 2026-05-04 09:46 | 45.65070 | 15.92858 | 2674 ft | 220 kts | 46° |
| 2026-05-04 09:46 | 45.66055 | 15.94351 | 2425 ft | 195 kts | 46° |
| 2026-05-04 09:46 | 45.66946 | 15.95701 | 2197 ft | 179 kts | 46° |
| 2026-05-04 09:47 | 45.67743 | 15.96919 | 1949 ft | 159 kts | 46° |
| 2026-05-04 09:47 | 45.68442 | 15.97973 | 1737 ft | 144 kts | 47° |
| 2026-05-04 09:49 | 45.72996 | 16.04912 | 464 ft | 131 kts | 42° |
| 2026-05-04 09:49 | 45.73592 | 16.05833 | 365 ft | 119 kts | 43° |
| 2026-05-04 09:49 | 45.73951 | 16.06349 | 364 ft | 62 kts | 46° |
| 2026-05-04 09:51 | 45.74587 | 16.07618 | 358 ft | 16 kts | 155° |
| 2026-05-04 09:51 | 45.74570 | 16.07630 | 357 ft | 3 kts | 153° |
| 2026-05-04 09:51 | 45.74548 | 16.07660 | 356 ft | 6 kts | 136° |
| 2026-05-04 09:51 | 45.74512 | 16.07721 | 352 ft | 10 kts | 130° |
| 2026-05-04 09:52 | 45.74455 | 16.07807 | 354 ft | 14 kts | 136° |
| 2026-05-04 09:52 | 45.74438 | 16.07832 | 352 ft | 0 kts | 132° |
| 2026-05-04 09:52 | 45.74437 | 16.07833 | 352 ft | 1 kts | 132° |
| 2026-05-04 09:53 | 45.74432 | 16.07841 | 357 ft | 2 kts | 134° |
| 2026-05-04 09:53 | 45.74424 | 16.07852 | 356 ft | 2 kts | 134° |
| 2026-05-04 09:53 | 45.74413 | 16.07868 | 354 ft | 3 kts | 136° |
| 2026-05-04 09:53 | 45.74368 | 16.07904 | 360 ft | 10 kts | 174° |
| 2026-05-04 09:54 | 45.74300 | 16.07827 | 357 ft | 18 kts | 226° |
| 2026-05-04 09:54 | 45.74282 | 16.07800 | 357 ft | 2 kts | 226° |
| 2026-05-04 09:54 | 45.74265 | 16.07798 | 355 ft | 2 kts | 167° |
| 2026-05-04 09:54 | 45.74258 | 16.07802 | 363 ft | 1 kts | 152° |
| 2026-05-04 09:55 | 45.74250 | 16.07811 | 361 ft | 4 kts | 142° |
| 2026-05-04 09:55 | 45.74236 | 16.07831 | 361 ft | 0 kts | 131° |
| 2026-05-04 09:55 | 45.74211 | 16.07867 | 360 ft | 0 kts | 139° |